sensor_id;sensor_type;location;lat;lon;timestamp;temperature;humidity
9125;DHT22;4597;48.730;9.114;2022-08-23T00:01:16;19.00;99.90
9125;DHT22;4597;48.730;9.114;2022-08-23T00:03:42;18.90;99.90
9125;DHT22;4597;48.730;9.114;2022-08-23T00:06:09;18.90;99.90
9125;DHT22;4597;48.730;9.114;2022-08-23T00:08:35;18.80;99.90
9125;DHT22;4597;48.730;9.114;2022-08-23T00:11:01;18.80;99.90
9125;DHT22;4597;48.730;9.114;2022-08-23T00:13:27;18.70;99.90
9125;DHT22;4597;48.730;9.114;2022-08-23T00:15:53;18.70;99.90
9125;DHT22;4597;48.730;9.114;2022-08-23T00:18:19;18.60;99.90
9125;DHT22;4597;48.730;9.114;2022-08-23T00:20:46;18.60;99.90
9125;DHT22;4597;48.730;9.114;2022-08-23T00:23:12;18.50;99.90
9125;DHT22;4597;48.730;9.114;2022-08-23T00:25:37;18.50;99.90
9125;DHT22;4597;48.730;9.114;2022-08-23T00:28:03;18.40;99.90
9125;DHT22;4597;48.730;9.114;2022-08-23T00:30:28;18.40;99.90
9125;DHT22;4597;48.730;9.114;2022-08-23T00:32:54;18.40;99.90
9125;DHT22;4597;48.730;9.114;2022-08-23T00:35:20;18.30;99.90
9125;DHT22;4597;48.730;9.114;2022-08-23T00:37:46;18.30;99.90
9125;DHT22;4597;48.730;9.114;2022-08-23T00:40:16;18.20;99.90
9125;DHT22;4597;48.730;9.114;2022-08-23T00:42:51;18.20;99.90
9125;DHT22;4597;48.730;9.114;2022-08-23T00:46:09;18.10;99.90
9125;DHT22;4597;48.730;9.114;2022-08-23T00:48:56;18.10;99.90
9125;DHT22;4597;48.730;9.114;2022-08-23T00:51:46;18.10;99.90
9125;DHT22;4597;48.730;9.114;2022-08-23T00:54:13;18.00;99.90
9125;DHT22;4597;48.730;9.114;2022-08-23T00:56:41;18.00;99.90
9125;DHT22;4597;48.730;9.114;2022-08-23T00:59:07;18.00;99.90
9125;DHT22;4597;48.730;9.114;2022-08-23T01:01:32;18.00;99.90
9125;DHT22;4597;48.730;9.114;2022-08-23T01:03:59;18.00;99.90
9125;DHT22;4597;48.730;9.114;2022-08-23T01:06:38;17.90;99.90
9125;DHT22;4597;48.730;9.114;2022-08-23T01:09:13;18.00;99.90
9125;DHT22;4597;48.730;9.114;2022-08-23T01:11:59;18.00;99.90
9125;DHT22;4597;48.730;9.114;2022-08-23T01:14:37;17.90;99.90
9125;DHT22;4597;48.730;9.114;2022-08-23T01:17:09;18.00;99.90
9125;DHT22;4597;48.730;9.114;2022-08-23T01:19:52;18.00;99.90
9125;DHT22;4597;48.730;9.114;2022-08-23T01:22:39;17.90;99.90
9125;DHT22;4597;48.730;9.114;2022-08-23T01:25:08;17.80;99.90
9125;DHT22;4597;48.730;9.114;2022-08-23T01:27:36;17.80;99.90
9125;DHT22;4597;48.730;9.114;2022-08-23T01:30:09;17.70;99.90
9125;DHT22;4597;48.730;9.114;2022-08-23T01:32:40;17.70;99.90
9125;DHT22;4597;48.730;9.114;2022-08-23T01:35:07;17.70;99.90
9125;DHT22;4597;48.730;9.114;2022-08-23T01:37:33;17.70;99.90
9125;DHT22;4597;48.730;9.114;2022-08-23T01:39:59;17.60;99.90
9125;DHT22;4597;48.730;9.114;2022-08-23T01:42:24;17.60;99.90
9125;DHT22;4597;48.730;9.114;2022-08-23T01:44:50;17.50;99.90
9125;DHT22;4597;48.730;9.114;2022-08-23T01:47:16;17.50;99.90
9125;DHT22;4597;48.730;9.114;2022-08-23T01:49:41;17.40;99.90
9125;DHT22;4597;48.730;9.114;2022-08-23T01:52:07;17.40;99.90
9125;DHT22;4597;48.730;9.114;2022-08-23T01:54:33;17.40;99.90
9125;DHT22;4597;48.730;9.114;2022-08-23T01:56:58;17.40;99.90
9125;DHT22;4597;48.730;9.114;2022-08-23T01:59:24;17.40;99.90
9125;DHT22;4597;48.730;9.114;2022-08-23T02:01:50;17.30;99.90
9125;DHT22;4597;48.730;9.114;2022-08-23T02:04:17;17.30;99.90
9125;DHT22;4597;48.730;9.114;2022-08-23T02:06:42;17.20;99.90
9125;DHT22;4597;48.730;9.114;2022-08-23T02:09:08;17.20;99.90
9125;DHT22;4597;48.730;9.114;2022-08-23T02:11:40;17.20;99.90
9125;DHT22;4597;48.730;9.114;2022-08-23T02:14:10;17.10;99.90
9125;DHT22;4597;48.730;9.114;2022-08-23T02:16:42;17.10;99.90
9125;DHT22;4597;48.730;9.114;2022-08-23T02:19:10;17.00;99.90
9125;DHT22;4597;48.730;9.114;2022-08-23T02:21:36;17.00;99.90
9125;DHT22;4597;48.730;9.114;2022-08-23T02:24:14;17.00;99.90
9125;DHT22;4597;48.730;9.114;2022-08-23T02:26:43;17.00;99.90
9125;DHT22;4597;48.730;9.114;2022-08-23T02:29:08;16.90;99.90
9125;DHT22;4597;48.730;9.114;2022-08-23T02:31:34;17.00;99.90
9125;DHT22;4597;48.730;9.114;2022-08-23T02:34:00;16.90;99.90
9125;DHT22;4597;48.730;9.114;2022-08-23T02:36:26;16.90;99.90
9125;DHT22;4597;48.730;9.114;2022-08-23T02:38:53;16.90;99.90
9125;DHT22;4597;48.730;9.114;2022-08-23T02:41:19;16.80;99.90
9125;DHT22;4597;48.730;9.114;2022-08-23T02:43:45;16.80;99.90
9125;DHT22;4597;48.730;9.114;2022-08-23T02:46:10;16.80;99.90
9125;DHT22;4597;48.730;9.114;2022-08-23T02:48:36;16.70;99.90
9125;DHT22;4597;48.730;9.114;2022-08-23T02:51:07;16.70;99.90
9125;DHT22;4597;48.730;9.114;2022-08-23T02:53:33;16.60;99.90
9125;DHT22;4597;48.730;9.114;2022-08-23T02:55:59;16.60;99.90
9125;DHT22;4597;48.730;9.114;2022-08-23T02:58:25;16.50;99.90
9125;DHT22;4597;48.730;9.114;2022-08-23T03:00:51;16.60;99.90
9125;DHT22;4597;48.730;9.114;2022-08-23T03:03:19;16.60;99.90
9125;DHT22;4597;48.730;9.114;2022-08-23T03:05:45;16.60;99.90
9125;DHT22;4597;48.730;9.114;2022-08-23T03:08:10;16.60;99.90
9125;DHT22;4597;48.730;9.114;2022-08-23T03:10:40;16.60;99.90
9125;DHT22;4597;48.730;9.114;2022-08-23T03:13:06;16.50;99.90
9125;DHT22;4597;48.730;9.114;2022-08-23T03:15:32;16.50;99.90
9125;DHT22;4597;48.730;9.114;2022-08-23T03:17:58;16.50;99.90
9125;DHT22;4597;48.730;9.114;2022-08-23T03:20:23;16.40;99.90
9125;DHT22;4597;48.730;9.114;2022-08-23T03:22:49;16.40;99.90
9125;DHT22;4597;48.730;9.114;2022-08-23T03:25:14;16.30;99.90
9125;DHT22;4597;48.730;9.114;2022-08-23T03:27:40;16.30;99.90
9125;DHT22;4597;48.730;9.114;2022-08-23T03:30:07;16.30;99.90
9125;DHT22;4597;48.730;9.114;2022-08-23T03:32:33;16.30;99.90
9125;DHT22;4597;48.730;9.114;2022-08-23T03:34:58;16.20;99.90
9125;DHT22;4597;48.730;9.114;2022-08-23T03:37:24;16.20;99.90
9125;DHT22;4597;48.730;9.114;2022-08-23T03:39:49;16.20;99.90
9125;DHT22;4597;48.730;9.114;2022-08-23T03:42:16;16.20;99.90
9125;DHT22;4597;48.730;9.114;2022-08-23T03:44:42;16.10;99.90
9125;DHT22;4597;48.730;9.114;2022-08-23T03:47:08;16.20;99.90
9125;DHT22;4597;48.730;9.114;2022-08-23T03:49:33;16.10;99.90
9125;DHT22;4597;48.730;9.114;2022-08-23T03:51:59;16.00;99.90
9125;DHT22;4597;48.730;9.114;2022-08-23T03:54:26;16.00;99.90
9125;DHT22;4597;48.730;9.114;2022-08-23T03:56:57;16.00;99.90
9125;DHT22;4597;48.730;9.114;2022-08-23T03:59:28;16.00;99.90
9125;DHT22;4597;48.730;9.114;2022-08-23T04:01:54;16.00;99.90
9125;DHT22;4597;48.730;9.114;2022-08-23T04:04:19;15.90;99.90
9125;DHT22;4597;48.730;9.114;2022-08-23T04:06:45;15.90;99.90
9125;DHT22;4597;48.730;9.114;2022-08-23T04:09:12;15.90;99.90
9125;DHT22;4597;48.730;9.114;2022-08-23T04:11:38;15.90;99.90
9125;DHT22;4597;48.730;9.114;2022-08-23T04:14:04;15.80;99.90
9125;DHT22;4597;48.730;9.114;2022-08-23T04:16:31;15.80;99.90
9125;DHT22;4597;48.730;9.114;2022-08-23T04:19:05;15.70;99.90
9125;DHT22;4597;48.730;9.114;2022-08-23T04:21:31;15.70;99.90
9125;DHT22;4597;48.730;9.114;2022-08-23T04:23:57;15.70;99.90
9125;DHT22;4597;48.730;9.114;2022-08-23T04:26:22;15.70;99.90
9125;DHT22;4597;48.730;9.114;2022-08-23T04:28:48;15.70;99.90
9125;DHT22;4597;48.730;9.114;2022-08-23T04:31:15;15.70;99.90
9125;DHT22;4597;48.730;9.114;2022-08-23T04:33:41;15.60;99.90
9125;DHT22;4597;48.730;9.114;2022-08-23T04:36:07;15.60;99.90
9125;DHT22;4597;48.730;9.114;2022-08-23T04:38:32;15.60;99.90
9125;DHT22;4597;48.730;9.114;2022-08-23T04:40:58;15.60;99.90
9125;DHT22;4597;48.730;9.114;2022-08-23T04:43:42;15.60;99.90
9125;DHT22;4597;48.730;9.114;2022-08-23T04:46:11;15.50;99.90
9125;DHT22;4597;48.730;9.114;2022-08-23T04:48:40;15.50;99.90
9125;DHT22;4597;48.730;9.114;2022-08-23T04:51:07;15.50;99.90
9125;DHT22;4597;48.730;9.114;2022-08-23T04:53:33;15.40;99.90
9125;DHT22;4597;48.730;9.114;2022-08-23T04:56:00;15.50;99.90
9125;DHT22;4597;48.730;9.114;2022-08-23T04:58:28;15.50;99.90
9125;DHT22;4597;48.730;9.114;2022-08-23T05:00:54;15.50;99.90
9125;DHT22;4597;48.730;9.114;2022-08-23T05:03:19;15.40;99.90
9125;DHT22;4597;48.730;9.114;2022-08-23T05:05:45;15.50;99.90
9125;DHT22;4597;48.730;9.114;2022-08-23T05:08:10;15.50;99.90
9125;DHT22;4597;48.730;9.114;2022-08-23T05:10:36;15.50;99.90
9125;DHT22;4597;48.730;9.114;2022-08-23T05:13:02;15.50;99.90
9125;DHT22;4597;48.730;9.114;2022-08-23T05:15:27;15.50;99.90
9125;DHT22;4597;48.730;9.114;2022-08-23T05:17:53;15.50;99.90
9125;DHT22;4597;48.730;9.114;2022-08-23T05:20:18;15.50;99.90
9125;DHT22;4597;48.730;9.114;2022-08-23T05:22:44;15.50;99.90
9125;DHT22;4597;48.730;9.114;2022-08-23T05:25:10;15.50;99.90
9125;DHT22;4597;48.730;9.114;2022-08-23T05:27:36;15.50;99.90
9125;DHT22;4597;48.730;9.114;2022-08-23T05:30:03;15.60;99.90
9125;DHT22;4597;48.730;9.114;2022-08-23T05:32:28;15.60;99.90
9125;DHT22;4597;48.730;9.114;2022-08-23T05:34:54;15.60;99.90
9125;DHT22;4597;48.730;9.114;2022-08-23T05:37:20;15.50;99.90
9125;DHT22;4597;48.730;9.114;2022-08-23T05:39:45;15.50;99.90
9125;DHT22;4597;48.730;9.114;2022-08-23T05:42:13;15.60;99.90
9125;DHT22;4597;48.730;9.114;2022-08-23T05:44:39;15.50;99.90
9125;DHT22;4597;48.730;9.114;2022-08-23T05:47:06;15.60;99.90
9125;DHT22;4597;48.730;9.114;2022-08-23T05:49:33;15.60;99.90
9125;DHT22;4597;48.730;9.114;2022-08-23T05:52:02;15.60;99.90
9125;DHT22;4597;48.730;9.114;2022-08-23T05:54:28;15.60;99.90
9125;DHT22;4597;48.730;9.114;2022-08-23T05:56:54;15.70;99.90
9125;DHT22;4597;48.730;9.114;2022-08-23T05:59:19;15.70;99.90
9125;DHT22;4597;48.730;9.114;2022-08-23T06:01:45;15.70;99.90
9125;DHT22;4597;48.730;9.114;2022-08-23T06:04:11;15.80;99.90
9125;DHT22;4597;48.730;9.114;2022-08-23T06:06:38;15.80;99.90
9125;DHT22;4597;48.730;9.114;2022-08-23T06:09:06;15.80;99.90
9125;DHT22;4597;48.730;9.114;2022-08-23T06:11:31;15.80;99.90
9125;DHT22;4597;48.730;9.114;2022-08-23T06:14:00;15.90;99.90
9125;DHT22;4597;48.730;9.114;2022-08-23T06:16:32;15.90;99.90
9125;DHT22;4597;48.730;9.114;2022-08-23T06:18:59;16.00;99.90
9125;DHT22;4597;48.730;9.114;2022-08-23T06:21:29;16.00;99.90
9125;DHT22;4597;48.730;9.114;2022-08-23T06:23:55;16.10;99.90
9125;DHT22;4597;48.730;9.114;2022-08-23T06:26:28;16.20;99.90
9125;DHT22;4597;48.730;9.114;2022-08-23T06:28:58;16.20;99.90
9125;DHT22;4597;48.730;9.114;2022-08-23T06:31:25;16.30;99.90
9125;DHT22;4597;48.730;9.114;2022-08-23T06:34:12;16.30;99.90
9125;DHT22;4597;48.730;9.114;2022-08-23T06:36:39;16.50;99.90
9125;DHT22;4597;48.730;9.114;2022-08-23T06:39:06;16.50;99.90
9125;DHT22;4597;48.730;9.114;2022-08-23T06:41:33;16.60;99.90
9125;DHT22;4597;48.730;9.114;2022-08-23T06:43:59;16.60;99.90
9125;DHT22;4597;48.730;9.114;2022-08-23T06:46:27;16.70;99.90
9125;DHT22;4597;48.730;9.114;2022-08-23T06:48:53;16.70;99.90
9125;DHT22;4597;48.730;9.114;2022-08-23T06:51:26;16.80;99.90
9125;DHT22;4597;48.730;9.114;2022-08-23T06:53:52;16.80;99.90
9125;DHT22;4597;48.730;9.114;2022-08-23T06:56:22;16.90;99.90
9125;DHT22;4597;48.730;9.114;2022-08-23T06:58:48;16.90;99.90
9125;DHT22;4597;48.730;9.114;2022-08-23T07:01:19;17.00;99.90
9125;DHT22;4597;48.730;9.114;2022-08-23T07:03:55;17.10;99.90
9125;DHT22;4597;48.730;9.114;2022-08-23T07:06:22;17.20;99.90
9125;DHT22;4597;48.730;9.114;2022-08-23T07:08:49;17.20;99.90
9125;DHT22;4597;48.730;9.114;2022-08-23T07:11:14;17.30;99.90
9125;DHT22;4597;48.730;9.114;2022-08-23T07:13:40;17.40;99.90
9125;DHT22;4597;48.730;9.114;2022-08-23T07:16:05;17.40;99.90
9125;DHT22;4597;48.730;9.114;2022-08-23T07:18:31;17.50;99.90
9125;DHT22;4597;48.730;9.114;2022-08-23T07:20:59;17.50;99.90
9125;DHT22;4597;48.730;9.114;2022-08-23T07:23:30;17.60;99.90
9125;DHT22;4597;48.730;9.114;2022-08-23T07:25:59;17.70;99.90
9125;DHT22;4597;48.730;9.114;2022-08-23T07:28:26;17.80;99.90
9125;DHT22;4597;48.730;9.114;2022-08-23T07:30:53;17.90;99.90
9125;DHT22;4597;48.730;9.114;2022-08-23T07:33:23;18.00;99.90
9125;DHT22;4597;48.730;9.114;2022-08-23T07:35:49;18.10;99.90
9125;DHT22;4597;48.730;9.114;2022-08-23T07:38:16;18.20;99.90
9125;DHT22;4597;48.730;9.114;2022-08-23T07:40:43;18.40;99.90
9125;DHT22;4597;48.730;9.114;2022-08-23T07:43:08;18.50;99.90
9125;DHT22;4597;48.730;9.114;2022-08-23T07:45:35;18.50;99.90
9125;DHT22;4597;48.730;9.114;2022-08-23T07:48:01;18.60;99.90
9125;DHT22;4597;48.730;9.114;2022-08-23T07:50:27;18.70;99.90
9125;DHT22;4597;48.730;9.114;2022-08-23T07:52:54;18.80;99.90
9125;DHT22;4597;48.730;9.114;2022-08-23T07:55:20;18.90;99.90
9125;DHT22;4597;48.730;9.114;2022-08-23T07:57:46;19.00;99.90
9125;DHT22;4597;48.730;9.114;2022-08-23T08:00:12;19.00;99.90
9125;DHT22;4597;48.730;9.114;2022-08-23T08:02:39;19.10;99.90
9125;DHT22;4597;48.730;9.114;2022-08-23T08:05:05;19.30;99.90
9125;DHT22;4597;48.730;9.114;2022-08-23T08:07:30;19.40;99.90
9125;DHT22;4597;48.730;9.114;2022-08-23T08:09:56;19.50;99.90
9125;DHT22;4597;48.730;9.114;2022-08-23T08:12:22;19.60;99.90
9125;DHT22;4597;48.730;9.114;2022-08-23T08:14:47;19.70;99.90
9125;DHT22;4597;48.730;9.114;2022-08-23T08:17:14;19.70;99.90
9125;DHT22;4597;48.730;9.114;2022-08-23T08:19:40;19.80;99.90
9125;DHT22;4597;48.730;9.114;2022-08-23T08:22:08;19.90;99.90
9125;DHT22;4597;48.730;9.114;2022-08-23T08:24:34;20.00;99.90
9125;DHT22;4597;48.730;9.114;2022-08-23T08:27:00;20.10;99.90
9125;DHT22;4597;48.730;9.114;2022-08-23T08:29:25;20.20;99.90
9125;DHT22;4597;48.730;9.114;2022-08-23T08:31:51;20.40;99.90
9125;DHT22;4597;48.730;9.114;2022-08-23T08:34:16;20.50;99.90
9125;DHT22;4597;48.730;9.114;2022-08-23T08:36:48;20.60;99.90
9125;DHT22;4597;48.730;9.114;2022-08-23T08:39:22;20.60;99.90
9125;DHT22;4597;48.730;9.114;2022-08-23T08:44:52;20.80;99.90
9125;DHT22;4597;48.730;9.114;2022-08-23T08:47:43;20.90;99.90
9125;DHT22;4597;48.730;9.114;2022-08-23T08:50:35;21.10;99.90
9125;DHT22;4597;48.730;9.114;2022-08-23T08:53:11;21.30;99.90
9125;DHT22;4597;48.730;9.114;2022-08-23T08:55:48;21.30;99.90
9125;DHT22;4597;48.730;9.114;2022-08-23T08:58:21;21.40;99.90
9125;DHT22;4597;48.730;9.114;2022-08-23T09:00:48;21.40;99.90
9125;DHT22;4597;48.730;9.114;2022-08-23T09:03:15;21.50;99.90
9125;DHT22;4597;48.730;9.114;2022-08-23T09:06:02;21.60;99.80
9125;DHT22;4597;48.730;9.114;2022-08-23T09:08:59;21.70;98.90
9125;DHT22;4597;48.730;9.114;2022-08-23T09:11:55;21.70;94.30
9125;DHT22;4597;48.730;9.114;2022-08-23T09:17:20;21.90;93.20
9125;DHT22;4597;48.730;9.114;2022-08-23T09:19:51;22.10;92.80
9125;DHT22;4597;48.730;9.114;2022-08-23T09:22:45;22.20;93.60
9125;DHT22;4597;48.730;9.114;2022-08-23T09:25:14;22.30;94.10
9125;DHT22;4597;48.730;9.114;2022-08-23T09:27:42;22.30;92.90
9125;DHT22;4597;48.730;9.114;2022-08-23T09:30:13;22.40;90.50
9125;DHT22;4597;48.730;9.114;2022-08-23T09:32:41;22.40;88.70
9125;DHT22;4597;48.730;9.114;2022-08-23T09:35:15;22.50;86.60
9125;DHT22;4597;48.730;9.114;2022-08-23T09:37:54;22.60;86.70
9125;DHT22;4597;48.730;9.114;2022-08-23T09:40:37;22.70;83.80
9125;DHT22;4597;48.730;9.114;2022-08-23T09:43:17;22.80;81.60
9125;DHT22;4597;48.730;9.114;2022-08-23T09:48:38;23.00;76.80
9125;DHT22;4597;48.730;9.114;2022-08-23T09:51:33;23.10;73.20
9125;DHT22;4597;48.730;9.114;2022-08-23T09:54:23;23.10;74.50
9125;DHT22;4597;48.730;9.114;2022-08-23T09:56:59;23.20;72.80
9125;DHT22;4597;48.730;9.114;2022-08-23T10:01:54;23.40;72.40
9125;DHT22;4597;48.730;9.114;2022-08-23T10:06:53;23.70;71.90
9125;DHT22;4597;48.730;9.114;2022-08-23T10:09:29;23.70;70.10
9125;DHT22;4597;48.730;9.114;2022-08-23T10:11:57;23.80;67.40
9125;DHT22;4597;48.730;9.114;2022-08-23T10:14:24;23.80;65.30
9125;DHT22;4597;48.730;9.114;2022-08-23T10:17:13;23.80;65.00
9125;DHT22;4597;48.730;9.114;2022-08-23T10:20:14;23.90;65.40
9125;DHT22;4597;48.730;9.114;2022-08-23T10:22:45;24.00;64.80
9125;DHT22;4597;48.730;9.114;2022-08-23T10:36:58;24.40;57.30
9125;DHT22;4597;48.730;9.114;2022-08-23T10:39:27;24.40;54.20
9125;DHT22;4597;48.730;9.114;2022-08-23T10:45:08;24.50;54.90
9125;DHT22;4597;48.730;9.114;2022-08-23T10:47:39;24.60;56.20
9125;DHT22;4597;48.730;9.114;2022-08-23T10:50:14;24.70;54.80
9125;DHT22;4597;48.730;9.114;2022-08-23T10:55:24;25.00;52.50
9125;DHT22;4597;48.730;9.114;2022-08-23T10:58:06;25.10;51.30
9125;DHT22;4597;48.730;9.114;2022-08-23T11:00:33;25.20;50.80
9125;DHT22;4597;48.730;9.114;2022-08-23T11:03:08;25.30;49.10
9125;DHT22;4597;48.730;9.114;2022-08-23T11:05:36;25.30;48.40
9125;DHT22;4597;48.730;9.114;2022-08-23T11:15:43;25.50;47.90
9125;DHT22;4597;48.730;9.114;2022-08-23T11:25:55;25.80;45.10
9125;DHT22;4597;48.730;9.114;2022-08-23T11:33:44;26.20;40.40
9125;DHT22;4597;48.730;9.114;2022-08-23T11:36:20;26.20;40.20
9125;DHT22;4597;48.730;9.114;2022-08-23T11:46:28;26.50;42.60
9125;DHT22;4597;48.730;9.114;2022-08-23T11:54:50;26.90;39.10
9125;DHT22;4597;48.730;9.114;2022-08-23T12:00:19;27.00;38.70
9125;DHT22;4597;48.730;9.114;2022-08-23T12:03:05;27.20;38.40
9125;DHT22;4597;48.730;9.114;2022-08-23T12:18:51;27.80;38.40
9125;DHT22;4597;48.730;9.114;2022-08-23T12:24:00;28.00;36.10
9125;DHT22;4597;48.730;9.114;2022-08-23T12:29:11;28.20;36.30
9125;DHT22;4597;48.730;9.114;2022-08-23T12:40:33;28.80;35.80
9125;DHT22;4597;48.730;9.114;2022-08-23T12:43:23;29.00;35.10
9125;DHT22;4597;48.730;9.114;2022-08-23T12:45:54;29.10;33.40
9125;DHT22;4597;48.730;9.114;2022-08-23T12:48:23;29.30;34.10
9125;DHT22;4597;48.730;9.114;2022-08-23T12:51:01;29.50;33.00
9125;DHT22;4597;48.730;9.114;2022-08-23T12:53:33;29.50;31.00
9125;DHT22;4597;48.730;9.114;2022-08-23T12:58:50;29.70;33.00
9125;DHT22;4597;48.730;9.114;2022-08-23T13:01:29;29.90;32.70
9125;DHT22;4597;48.730;9.114;2022-08-23T13:04:14;30.10;29.70
9125;DHT22;4597;48.730;9.114;2022-08-23T13:06:46;30.10;30.90
9125;DHT22;4597;48.730;9.114;2022-08-23T13:09:37;30.30;30.20
9125;DHT22;4597;48.730;9.114;2022-08-23T13:12:03;30.40;29.30
9125;DHT22;4597;48.730;9.114;2022-08-23T13:14:48;30.40;28.70
9125;DHT22;4597;48.730;9.114;2022-08-23T13:19:49;30.50;28.90
9125;DHT22;4597;48.730;9.114;2022-08-23T13:25:08;30.60;28.90
9125;DHT22;4597;48.730;9.114;2022-08-23T13:27:48;30.80;28.40
9125;DHT22;4597;48.730;9.114;2022-08-23T13:33:29;31.20;28.50
9125;DHT22;4597;48.730;9.114;2022-08-23T13:35:43;31.60;28.90
9125;DHT22;4597;48.730;9.114;2022-08-23T13:45:56;32.90;25.90
9125;DHT22;4597;48.730;9.114;2022-08-23T13:50:50;33.10;24.10
9125;DHT22;4597;48.730;9.114;2022-08-23T13:53:16;33.20;23.20
9125;DHT22;4597;48.730;9.114;2022-08-23T13:55:45;33.20;23.60
9125;DHT22;4597;48.730;9.114;2022-08-23T13:58:16;33.20;23.20
9125;DHT22;4597;48.730;9.114;2022-08-23T14:00:42;33.50;23.00
9125;DHT22;4597;48.730;9.114;2022-08-23T14:03:07;33.70;23.00
9125;DHT22;4597;48.730;9.114;2022-08-23T14:05:33;34.10;23.30
9125;DHT22;4597;48.730;9.114;2022-08-23T14:07:59;34.40;22.20
9125;DHT22;4597;48.730;9.114;2022-08-23T14:10:25;34.50;21.90
9125;DHT22;4597;48.730;9.114;2022-08-23T14:12:52;34.50;21.20
9125;DHT22;4597;48.730;9.114;2022-08-23T14:15:19;34.70;21.80
9125;DHT22;4597;48.730;9.114;2022-08-23T14:17:48;34.90;21.20
9125;DHT22;4597;48.730;9.114;2022-08-23T14:20:16;35.30;21.40
9125;DHT22;4597;48.730;9.114;2022-08-23T14:22:42;35.70;21.00
9125;DHT22;4597;48.730;9.114;2022-08-23T14:25:09;36.10;19.90
9125;DHT22;4597;48.730;9.114;2022-08-23T14:27:37;36.40;19.70
9125;DHT22;4597;48.730;9.114;2022-08-23T14:30:04;36.70;19.90
9125;DHT22;4597;48.730;9.114;2022-08-23T14:32:30;37.20;20.30
9125;DHT22;4597;48.730;9.114;2022-08-23T14:34:56;37.60;19.50
9125;DHT22;4597;48.730;9.114;2022-08-23T14:37:21;37.90;18.20
9125;DHT22;4597;48.730;9.114;2022-08-23T14:39:47;38.30;18.10
9125;DHT22;4597;48.730;9.114;2022-08-23T14:42:16;38.40;17.90
9125;DHT22;4597;48.730;9.114;2022-08-23T14:44:43;38.90;18.00
9125;DHT22;4597;48.730;9.114;2022-08-23T14:47:08;40.00;17.20
9125;DHT22;4597;48.730;9.114;2022-08-23T14:49:34;41.50;15.30
9125;DHT22;4597;48.730;9.114;2022-08-23T14:52:00;42.70;14.00
9125;DHT22;4597;48.730;9.114;2022-08-23T14:54:26;43.90;12.00
9125;DHT22;4597;48.730;9.114;2022-08-23T14:56:52;44.70;11.40
9125;DHT22;4597;48.730;9.114;2022-08-23T14:59:18;45.10;10.80
9125;DHT22;4597;48.730;9.114;2022-08-23T15:01:45;45.50;10.30
9125;DHT22;4597;48.730;9.114;2022-08-23T15:04:17;45.80;9.50
9125;DHT22;4597;48.730;9.114;2022-08-23T15:06:43;45.50;9.40
9125;DHT22;4597;48.730;9.114;2022-08-23T15:09:09;44.90;9.60
9125;DHT22;4597;48.730;9.114;2022-08-23T15:11:34;44.40;9.80
9125;DHT22;4597;48.730;9.114;2022-08-23T15:14:00;44.70;9.90
9125;DHT22;4597;48.730;9.114;2022-08-23T15:16:26;45.10;9.60
9125;DHT22;4597;48.730;9.114;2022-08-23T15:18:52;45.00;9.20
9125;DHT22;4597;48.730;9.114;2022-08-23T15:21:18;44.60;10.00
9125;DHT22;4597;48.730;9.114;2022-08-23T15:23:44;44.10;9.50
9125;DHT22;4597;48.730;9.114;2022-08-23T15:26:10;43.00;10.10
9125;DHT22;4597;48.730;9.114;2022-08-23T15:28:37;41.80;11.80
9125;DHT22;4597;48.730;9.114;2022-08-23T15:31:04;40.60;12.50
9125;DHT22;4597;48.730;9.114;2022-08-23T15:33:30;39.40;13.20
9125;DHT22;4597;48.730;9.114;2022-08-23T15:35:57;39.00;13.80
9125;DHT22;4597;48.730;9.114;2022-08-23T15:38:24;38.30;14.50
9125;DHT22;4597;48.730;9.114;2022-08-23T15:40:51;38.10;14.80
9125;DHT22;4597;48.730;9.114;2022-08-23T15:43:19;37.70;14.90
9125;DHT22;4597;48.730;9.114;2022-08-23T15:45:45;38.00;15.30
9125;DHT22;4597;48.730;9.114;2022-08-23T15:48:22;38.30;15.40
9125;DHT22;4597;48.730;9.114;2022-08-23T15:50:48;38.50;14.70
9125;DHT22;4597;48.730;9.114;2022-08-23T15:53:14;38.40;15.20
9125;DHT22;4597;48.730;9.114;2022-08-23T15:55:41;38.50;15.20
9125;DHT22;4597;48.730;9.114;2022-08-23T15:58:15;38.40;15.40
9125;DHT22;4597;48.730;9.114;2022-08-23T16:00:43;38.50;15.50
9125;DHT22;4597;48.730;9.114;2022-08-23T16:03:09;38.70;15.40
9125;DHT22;4597;48.730;9.114;2022-08-23T16:05:37;38.80;15.20
9125;DHT22;4597;48.730;9.114;2022-08-23T16:08:03;38.90;15.30
9125;DHT22;4597;48.730;9.114;2022-08-23T16:10:29;39.00;15.20
9125;DHT22;4597;48.730;9.114;2022-08-23T16:12:55;39.10;14.60
9125;DHT22;4597;48.730;9.114;2022-08-23T16:15:20;39.10;14.60
9125;DHT22;4597;48.730;9.114;2022-08-23T16:17:46;39.00;14.70
9125;DHT22;4597;48.730;9.114;2022-08-23T16:20:11;39.30;14.30
9125;DHT22;4597;48.730;9.114;2022-08-23T16:22:38;40.40;14.00
9125;DHT22;4597;48.730;9.114;2022-08-23T16:25:04;41.70;12.60
9125;DHT22;4597;48.730;9.114;2022-08-23T16:27:30;42.80;11.70
9125;DHT22;4597;48.730;9.114;2022-08-23T16:29:56;43.80;10.90
9125;DHT22;4597;48.730;9.114;2022-08-23T16:32:21;44.40;10.30
9125;DHT22;4597;48.730;9.114;2022-08-23T16:34:47;44.90;10.10
9125;DHT22;4597;48.730;9.114;2022-08-23T16:37:12;45.30;9.20
9125;DHT22;4597;48.730;9.114;2022-08-23T16:39:38;45.30;9.20
9125;DHT22;4597;48.730;9.114;2022-08-23T16:42:05;45.40;9.20
9125;DHT22;4597;48.730;9.114;2022-08-23T16:44:31;45.40;9.40
9125;DHT22;4597;48.730;9.114;2022-08-23T16:46:57;45.20;9.60
9125;DHT22;4597;48.730;9.114;2022-08-23T16:49:23;44.20;10.40
9125;DHT22;4597;48.730;9.114;2022-08-23T16:51:49;43.40;10.50
9125;DHT22;4597;48.730;9.114;2022-08-23T16:54:15;42.30;11.60
9125;DHT22;4597;48.730;9.114;2022-08-23T16:56:42;41.20;12.20
9125;DHT22;4597;48.730;9.114;2022-08-23T16:59:10;40.20;12.70
9125;DHT22;4597;48.730;9.114;2022-08-23T17:01:48;39.00;13.60
9125;DHT22;4597;48.730;9.114;2022-08-23T17:04:15;37.90;15.10
9125;DHT22;4597;48.730;9.114;2022-08-23T17:06:41;37.30;15.20
9125;DHT22;4597;48.730;9.114;2022-08-23T17:09:08;37.10;16.50
9125;DHT22;4597;48.730;9.114;2022-08-23T17:11:34;36.70;16.30
9125;DHT22;4597;48.730;9.114;2022-08-23T17:13:59;36.00;16.80
9125;DHT22;4597;48.730;9.114;2022-08-23T17:16:25;35.60;17.20
9125;DHT22;4597;48.730;9.114;2022-08-23T17:18:51;35.10;17.30
9125;DHT22;4597;48.730;9.114;2022-08-23T17:21:24;34.60;18.20
9125;DHT22;4597;48.730;9.114;2022-08-23T17:23:50;34.10;18.50
9125;DHT22;4597;48.730;9.114;2022-08-23T17:26:17;33.80;18.80
9125;DHT22;4597;48.730;9.114;2022-08-23T17:28:42;33.50;19.00
9125;DHT22;4597;48.730;9.114;2022-08-23T17:31:09;33.20;19.30
9125;DHT22;4597;48.730;9.114;2022-08-23T17:33:34;33.00;20.30
9125;DHT22;4597;48.730;9.114;2022-08-23T17:36:00;32.70;20.60
9125;DHT22;4597;48.730;9.114;2022-08-23T17:38:26;32.50;20.80
9125;DHT22;4597;48.730;9.114;2022-08-23T17:40:52;32.30;21.10
9125;DHT22;4597;48.730;9.114;2022-08-23T17:43:18;32.10;21.40
9125;DHT22;4597;48.730;9.114;2022-08-23T17:45:47;31.90;21.80
9125;DHT22;4597;48.730;9.114;2022-08-23T17:48:14;31.70;22.60
9125;DHT22;4597;48.730;9.114;2022-08-23T17:50:41;31.50;22.20
9125;DHT22;4597;48.730;9.114;2022-08-23T17:53:08;31.40;23.10
9125;DHT22;4597;48.730;9.114;2022-08-23T17:55:36;31.10;23.40
9125;DHT22;4597;48.730;9.114;2022-08-23T17:58:03;30.90;24.20
9125;DHT22;4597;48.730;9.114;2022-08-23T18:00:30;30.70;24.40
9125;DHT22;4597;48.730;9.114;2022-08-23T18:02:57;30.50;24.90
9125;DHT22;4597;48.730;9.114;2022-08-23T18:05:24;30.30;25.10
9125;DHT22;4597;48.730;9.114;2022-08-23T18:07:49;30.20;25.50
9125;DHT22;4597;48.730;9.114;2022-08-23T18:10:15;30.10;25.90